sensor_id;sensor_type;location;lat;lon;timestamp;temperature;humidity
31735;DHT22;18313;48.518;9.124;2023-04-01T00:01:47;8.70;99.90
31735;DHT22;18313;48.518;9.124;2023-04-01T00:04:14;8.60;99.90
31735;DHT22;18313;48.518;9.124;2023-04-01T00:06:42;8.70;99.90
31735;DHT22;18313;48.518;9.124;2023-04-01T00:09:09;8.60;99.90
31735;DHT22;18313;48.518;9.124;2023-04-01T00:11:37;8.60;99.90
31735;DHT22;18313;48.518;9.124;2023-04-01T00:14:03;8.70;99.90
31735;DHT22;18313;48.518;9.124;2023-04-01T00:16:31;8.60;99.90
31735;DHT22;18313;48.518;9.124;2023-04-01T00:18:58;8.60;99.90
31735;DHT22;18313;48.518;9.124;2023-04-01T00:21:26;8.50;99.90
31735;DHT22;18313;48.518;9.124;2023-04-01T00:23:53;8.60;99.90
31735;DHT22;18313;48.518;9.124;2023-04-01T00:26:20;8.50;99.90
31735;DHT22;18313;48.518;9.124;2023-04-01T00:28:48;8.50;99.90
31735;DHT22;18313;48.518;9.124;2023-04-01T00:31:16;8.50;99.90
31735;DHT22;18313;48.518;9.124;2023-04-01T00:33:43;8.50;99.90
31735;DHT22;18313;48.518;9.124;2023-04-01T00:36:13;8.60;99.90
31735;DHT22;18313;48.518;9.124;2023-04-01T00:38:41;8.50;99.90
31735;DHT22;18313;48.518;9.124;2023-04-01T00:41:10;8.60;99.90
31735;DHT22;18313;48.518;9.124;2023-04-01T00:43:45;8.60;99.90
31735;DHT22;18313;48.518;9.124;2023-04-01T00:46:13;8.60;99.90
31735;DHT22;18313;48.518;9.124;2023-04-01T00:48:45;8.60;99.90
31735;DHT22;18313;48.518;9.124;2023-04-01T00:51:19;8.50;99.90
31735;DHT22;18313;48.518;9.124;2023-04-01T00:53:50;8.60;99.90
31735;DHT22;18313;48.518;9.124;2023-04-01T00:56:33;8.50;99.90
31735;DHT22;18313;48.518;9.124;2023-04-01T00:59:04;8.50;99.90
31735;DHT22;18313;48.518;9.124;2023-04-01T01:01:35;8.50;99.90
31735;DHT22;18313;48.518;9.124;2023-04-01T01:04:02;8.40;99.90
31735;DHT22;18313;48.518;9.124;2023-04-01T01:06:45;8.50;99.90
31735;DHT22;18313;48.518;9.124;2023-04-01T01:12:06;8.50;99.90
31735;DHT22;18313;48.518;9.124;2023-04-01T01:14:43;8.50;99.90
31735;DHT22;18313;48.518;9.124;2023-04-01T01:17:37;8.50;99.90
31735;DHT22;18313;48.518;9.124;2023-04-01T01:31:22;8.50;99.90
31735;DHT22;18313;48.518;9.124;2023-04-01T01:36:42;8.50;99.90
31735;DHT22;18313;48.518;9.124;2023-04-01T01:39:12;8.50;99.90
31735;DHT22;18313;48.518;9.124;2023-04-01T01:41:42;8.50;99.90
31735;DHT22;18313;48.518;9.124;2023-04-01T01:44:12;8.50;99.90
31735;DHT22;18313;48.518;9.124;2023-04-01T01:46:42;8.50;99.90
31735;DHT22;18313;48.518;9.124;2023-04-01T01:49:11;8.40;99.90
31735;DHT22;18313;48.518;9.124;2023-04-01T01:51:40;8.50;99.90
31735;DHT22;18313;48.518;9.124;2023-04-01T01:54:14;8.50;99.90
31735;DHT22;18313;48.518;9.124;2023-04-01T01:56:44;8.50;99.90
31735;DHT22;18313;48.518;9.124;2023-04-01T01:59:15;8.50;99.90
31735;DHT22;18313;48.518;9.124;2023-04-01T02:01:45;8.50;99.90
31735;DHT22;18313;48.518;9.124;2023-04-01T02:04:14;8.50;99.90
31735;DHT22;18313;48.518;9.124;2023-04-01T02:06:49;8.40;99.90
31735;DHT22;18313;48.518;9.124;2023-04-01T02:09:19;8.50;99.90
31735;DHT22;18313;48.518;9.124;2023-04-01T02:11:52;8.40;99.90
31735;DHT22;18313;48.518;9.124;2023-04-01T02:14:41;8.40;99.90
31735;DHT22;18313;48.518;9.124;2023-04-01T02:17:14;8.40;99.90
31735;DHT22;18313;48.518;9.124;2023-04-01T02:19:53;8.30;99.90
31735;DHT22;18313;48.518;9.124;2023-04-01T02:22:24;8.40;99.90
31735;DHT22;18313;48.518;9.124;2023-04-01T02:24:55;8.40;99.90
31735;DHT22;18313;48.518;9.124;2023-04-01T02:27:24;8.30;99.90
31735;DHT22;18313;48.518;9.124;2023-04-01T02:29:52;8.30;99.90
31735;DHT22;18313;48.518;9.124;2023-04-01T02:32:20;8.10;99.90
31735;DHT22;18313;48.518;9.124;2023-04-01T02:34:48;8.20;99.90
31735;DHT22;18313;48.518;9.124;2023-04-01T02:37:16;8.20;99.90
31735;DHT22;18313;48.518;9.124;2023-04-01T02:39:44;8.20;99.90
31735;DHT22;18313;48.518;9.124;2023-04-01T02:42:11;8.10;99.90
31735;DHT22;18313;48.518;9.124;2023-04-01T02:44:38;8.10;99.90
31735;DHT22;18313;48.518;9.124;2023-04-01T02:47:05;8.10;99.90
31735;DHT22;18313;48.518;9.124;2023-04-01T02:49:33;8.10;99.90
31735;DHT22;18313;48.518;9.124;2023-04-01T02:52:00;8.00;99.90
31735;DHT22;18313;48.518;9.124;2023-04-01T02:54:27;8.00;99.90
31735;DHT22;18313;48.518;9.124;2023-04-01T02:56:54;7.90;99.90
31735;DHT22;18313;48.518;9.124;2023-04-01T02:59:21;7.90;99.90
31735;DHT22;18313;48.518;9.124;2023-04-01T03:01:51;7.80;99.90
31735;DHT22;18313;48.518;9.124;2023-04-01T03:04:18;7.80;99.90
31735;DHT22;18313;48.518;9.124;2023-04-01T03:06:45;7.70;99.90
31735;DHT22;18313;48.518;9.124;2023-04-01T03:09:12;7.70;99.90
31735;DHT22;18313;48.518;9.124;2023-04-01T03:11:41;7.70;99.90
31735;DHT22;18313;48.518;9.124;2023-04-01T03:14:08;7.70;99.90
31735;DHT22;18313;48.518;9.124;2023-04-01T03:16:35;7.60;99.90
31735;DHT22;18313;48.518;9.124;2023-04-01T03:19:02;7.60;99.90
31735;DHT22;18313;48.518;9.124;2023-04-01T03:21:29;7.60;99.90
31735;DHT22;18313;48.518;9.124;2023-04-01T03:23:57;7.50;99.90
31735;DHT22;18313;48.518;9.124;2023-04-01T03:26:25;7.50;99.90
31735;DHT22;18313;48.518;9.124;2023-04-01T03:28:54;7.50;99.90
31735;DHT22;18313;48.518;9.124;2023-04-01T03:31:22;7.40;99.90
31735;DHT22;18313;48.518;9.124;2023-04-01T03:33:50;7.50;99.90
31735;DHT22;18313;48.518;9.124;2023-04-01T03:36:17;7.40;99.90
31735;DHT22;18313;48.518;9.124;2023-04-01T03:38:45;7.50;99.90
31735;DHT22;18313;48.518;9.124;2023-04-01T03:41:13;7.40;99.90
31735;DHT22;18313;48.518;9.124;2023-04-01T03:43:41;7.40;99.90
31735;DHT22;18313;48.518;9.124;2023-04-01T03:46:09;7.40;99.90
31735;DHT22;18313;48.518;9.124;2023-04-01T03:48:36;7.40;99.90
31735;DHT22;18313;48.518;9.124;2023-04-01T03:51:07;7.30;99.90
31735;DHT22;18313;48.518;9.124;2023-04-01T03:53:35;7.30;99.90
31735;DHT22;18313;48.518;9.124;2023-04-01T03:56:04;7.20;99.90
31735;DHT22;18313;48.518;9.124;2023-04-01T03:58:32;7.10;99.90
31735;DHT22;18313;48.518;9.124;2023-04-01T04:00:59;7.10;99.90
31735;DHT22;18313;48.518;9.124;2023-04-01T04:03:27;7.10;99.90
31735;DHT22;18313;48.518;9.124;2023-04-01T04:05:55;7.10;99.90
31735;DHT22;18313;48.518;9.124;2023-04-01T04:08:23;7.20;99.90
31735;DHT22;18313;48.518;9.124;2023-04-01T04:10:55;7.20;99.90
31735;DHT22;18313;48.518;9.124;2023-04-01T04:13:22;7.10;99.90
31735;DHT22;18313;48.518;9.124;2023-04-01T04:15:49;7.10;99.90
31735;DHT22;18313;48.518;9.124;2023-04-01T04:18:17;7.10;99.90
31735;DHT22;18313;48.518;9.124;2023-04-01T04:20:47;7.10;99.90
31735;DHT22;18313;48.518;9.124;2023-04-01T04:23:17;7.00;99.90
31735;DHT22;18313;48.518;9.124;2023-04-01T04:26:03;7.00;99.90
31735;DHT22;18313;48.518;9.124;2023-04-01T04:28:32;7.00;99.90
31735;DHT22;18313;48.518;9.124;2023-04-01T04:30:59;7.10;99.90
31735;DHT22;18313;48.518;9.124;2023-04-01T04:33:27;7.10;99.90
31735;DHT22;18313;48.518;9.124;2023-04-01T04:35:56;7.10;99.90
31735;DHT22;18313;48.518;9.124;2023-04-01T04:38:23;7.10;99.90
31735;DHT22;18313;48.518;9.124;2023-04-01T04:40:51;7.10;99.90
31735;DHT22;18313;48.518;9.124;2023-04-01T04:43:18;7.20;99.90
31735;DHT22;18313;48.518;9.124;2023-04-01T04:45:45;7.20;99.90
31735;DHT22;18313;48.518;9.124;2023-04-01T04:48:14;7.20;99.90
31735;DHT22;18313;48.518;9.124;2023-04-01T04:50:49;7.20;99.90
31735;DHT22;18313;48.518;9.124;2023-04-01T04:53:18;7.30;99.90
31735;DHT22;18313;48.518;9.124;2023-04-01T04:55:49;7.30;99.90
31735;DHT22;18313;48.518;9.124;2023-04-01T04:58:17;7.30;99.90
31735;DHT22;18313;48.518;9.124;2023-04-01T05:00:45;7.30;99.90
31735;DHT22;18313;48.518;9.124;2023-04-01T05:03:13;7.30;99.90
31735;DHT22;18313;48.518;9.124;2023-04-01T05:05:51;7.40;99.90
31735;DHT22;18313;48.518;9.124;2023-04-01T05:08:19;7.40;99.90
31735;DHT22;18313;48.518;9.124;2023-04-01T05:10:46;7.40;99.90
31735;DHT22;18313;48.518;9.124;2023-04-01T05:13:13;7.40;99.90
31735;DHT22;18313;48.518;9.124;2023-04-01T05:15:40;7.50;99.90
31735;DHT22;18313;48.518;9.124;2023-04-01T05:18:07;7.50;99.90
31735;DHT22;18313;48.518;9.124;2023-04-01T05:20:35;7.60;99.90
31735;DHT22;18313;48.518;9.124;2023-04-01T05:23:02;7.60;99.90
31735;DHT22;18313;48.518;9.124;2023-04-01T05:25:29;7.60;99.90
31735;DHT22;18313;48.518;9.124;2023-04-01T05:27:56;7.70;99.90
31735;DHT22;18313;48.518;9.124;2023-04-01T05:30:24;7.70;99.90
31735;DHT22;18313;48.518;9.124;2023-04-01T05:32:51;7.70;99.90
31735;DHT22;18313;48.518;9.124;2023-04-01T05:35:18;7.70;99.90
31735;DHT22;18313;48.518;9.124;2023-04-01T05:37:46;7.70;99.90
31735;DHT22;18313;48.518;9.124;2023-04-01T05:40:13;7.70;99.90
31735;DHT22;18313;48.518;9.124;2023-04-01T05:42:40;7.70;99.90
31735;DHT22;18313;48.518;9.124;2023-04-01T05:45:07;7.70;99.90
31735;DHT22;18313;48.518;9.124;2023-04-01T05:47:35;7.70;99.90
31735;DHT22;18313;48.518;9.124;2023-04-01T05:50:03;7.80;99.90
31735;DHT22;18313;48.518;9.124;2023-04-01T05:52:30;7.90;99.90
31735;DHT22;18313;48.518;9.124;2023-04-01T05:54:57;7.90;99.90
31735;DHT22;18313;48.518;9.124;2023-04-01T05:57:26;7.90;99.90
31735;DHT22;18313;48.518;9.124;2023-04-01T05:59:54;8.00;99.90
31735;DHT22;18313;48.518;9.124;2023-04-01T06:02:21;8.00;99.90
31735;DHT22;18313;48.518;9.124;2023-04-01T06:04:49;8.00;99.90
31735;DHT22;18313;48.518;9.124;2023-04-01T06:07:21;8.00;99.90
31735;DHT22;18313;48.518;9.124;2023-04-01T06:09:48;8.10;99.90
31735;DHT22;18313;48.518;9.124;2023-04-01T06:15:29;8.20;99.90
31735;DHT22;18313;48.518;9.124;2023-04-01T06:30:01;8.40;99.90
31735;DHT22;18313;48.518;9.124;2023-04-01T06:35:43;8.50;99.90
31735;DHT22;18313;48.518;9.124;2023-04-01T06:39:09;8.50;99.90
31735;DHT22;18313;48.518;9.124;2023-04-01T06:41:38;8.60;99.90
31735;DHT22;18313;48.518;9.124;2023-04-01T06:44:51;8.60;99.90
31735;DHT22;18313;48.518;9.124;2023-04-01T06:47:41;8.60;99.90
31735;DHT22;18313;48.518;9.124;2023-04-01T06:53:25;8.70;99.90
31735;DHT22;18313;48.518;9.124;2023-04-01T06:56:16;8.70;99.90
31735;DHT22;18313;48.518;9.124;2023-04-01T07:01:40;8.80;99.90
31735;DHT22;18313;48.518;9.124;2023-04-01T07:09:24;8.90;99.90
31735;DHT22;18313;48.518;9.124;2023-04-01T07:11:53;9.00;99.90
31735;DHT22;18313;48.518;9.124;2023-04-01T07:14:37;9.00;99.90
31735;DHT22;18313;48.518;9.124;2023-04-01T07:17:27;9.10;99.90
31735;DHT22;18313;48.518;9.124;2023-04-01T07:20:17;9.10;99.90
31735;DHT22;18313;48.518;9.124;2023-04-01T07:22:53;9.20;99.90
31735;DHT22;18313;48.518;9.124;2023-04-01T07:25:30;9.20;99.90
31735;DHT22;18313;48.518;9.124;2023-04-01T07:28:04;9.20;99.90
31735;DHT22;18313;48.518;9.124;2023-04-01T07:30:48;9.20;99.90
31735;DHT22;18313;48.518;9.124;2023-04-01T07:33:38;9.20;99.90
31735;DHT22;18313;48.518;9.124;2023-04-01T07:36:26;9.20;99.90
31735;DHT22;18313;48.518;9.124;2023-04-01T07:42:20;9.30;99.90
31735;DHT22;18313;48.518;9.124;2023-04-01T07:52:48;9.40;99.90
31735;DHT22;18313;48.518;9.124;2023-04-01T07:55:40;9.50;99.90
31735;DHT22;18313;48.518;9.124;2023-04-01T08:00:57;9.50;99.90
31735;DHT22;18313;48.518;9.124;2023-04-01T08:03:55;9.60;99.90
31735;DHT22;18313;48.518;9.124;2023-04-01T08:09:36;9.60;99.90
31735;DHT22;18313;48.518;9.124;2023-04-01T08:12:17;9.50;99.90
31735;DHT22;18313;48.518;9.124;2023-04-01T08:18:08;9.50;99.90
31735;DHT22;18313;48.518;9.124;2023-04-01T08:20:46;9.60;99.90
31735;DHT22;18313;48.518;9.124;2023-04-01T08:23:19;9.60;99.90
31735;DHT22;18313;48.518;9.124;2023-04-01T08:29:04;9.60;99.90
31735;DHT22;18313;48.518;9.124;2023-04-01T08:31:55;9.60;99.90
31735;DHT22;18313;48.518;9.124;2023-04-01T08:34:28;9.60;99.90
31735;DHT22;18313;48.518;9.124;2023-04-01T08:37:03;9.60;99.90
31735;DHT22;18313;48.518;9.124;2023-04-01T08:39:36;9.60;99.90
31735;DHT22;18313;48.518;9.124;2023-04-01T08:50:26;9.40;99.90
31735;DHT22;18313;48.518;9.124;2023-04-01T08:55:30;9.40;99.90
31735;DHT22;18313;48.518;9.124;2023-04-01T08:58:22;9.40;99.90
31735;DHT22;18313;48.518;9.124;2023-04-01T09:01:03;9.40;99.90
31735;DHT22;18313;48.518;9.124;2023-04-01T09:03:37;9.40;99.90
31735;DHT22;18313;48.518;9.124;2023-04-01T09:20:24;9.50;99.90
31735;DHT22;18313;48.518;9.124;2023-04-01T09:23:22;9.60;99.90
31735;DHT22;18313;48.518;9.124;2023-04-01T09:37:25;9.70;99.90
31735;DHT22;18313;48.518;9.124;2023-04-01T09:43:25;9.70;99.90
31735;DHT22;18313;48.518;9.124;2023-04-01T10:26:22;9.50;99.90
31735;DHT22;18313;48.518;9.124;2023-04-01T10:29:09;9.40;99.90
31735;DHT22;18313;48.518;9.124;2023-04-01T10:32:03;9.40;99.90
31735;DHT22;18313;48.518;9.124;2023-04-01T10:35:20;9.40;99.90
31735;DHT22;18313;48.518;9.124;2023-04-01T10:38:02;9.40;99.90
31735;DHT22;18313;48.518;9.124;2023-04-01T10:40:53;9.50;99.90
31735;DHT22;18313;48.518;9.124;2023-04-01T10:49:43;9.60;99.90
31735;DHT22;18313;48.518;9.124;2023-04-01T10:58:02;9.70;99.90
31735;DHT22;18313;48.518;9.124;2023-04-01T11:15:59;10.00;99.90
31735;DHT22;18313;48.518;9.124;2023-04-01T11:18:08;10.10;99.90
31735;DHT22;18313;48.518;9.124;2023-04-01T11:21:21;10.20;99.90
31735;DHT22;18313;48.518;9.124;2023-04-01T11:24:08;10.30;99.90
31735;DHT22;18313;48.518;9.124;2023-04-01T11:37:56;10.10;99.90
31735;DHT22;18313;48.518;9.124;2023-04-01T11:40:38;10.20;99.90
31735;DHT22;18313;48.518;9.124;2023-04-01T11:43:22;10.20;99.90
31735;DHT22;18313;48.518;9.124;2023-04-01T11:46:14;10.20;99.90
31735;DHT22;18313;48.518;9.124;2023-04-01T11:52:15;10.40;99.90
31735;DHT22;18313;48.518;9.124;2023-04-01T11:57:43;10.40;99.90
31735;DHT22;18313;48.518;9.124;2023-04-01T12:00:24;10.40;99.90
31735;DHT22;18313;48.518;9.124;2023-04-01T12:14:48;10.40;99.90
31735;DHT22;18313;48.518;9.124;2023-04-01T12:41:32;10.50;99.90
31735;DHT22;18313;48.518;9.124;2023-04-01T12:44:29;10.50;99.90
31735;DHT22;18313;48.518;9.124;2023-04-01T12:47:47;10.60;99.90
31735;DHT22;18313;48.518;9.124;2023-04-01T13:02:11;10.60;99.90
31735;DHT22;18313;48.518;9.124;2023-04-01T13:04:56;10.80;99.90
31735;DHT22;18313;48.518;9.124;2023-04-01T13:08:08;10.70;99.90
31735;DHT22;18313;48.518;9.124;2023-04-01T13:18:58;11.10;99.90
31735;DHT22;18313;48.518;9.124;2023-04-01T13:27:07;11.40;99.90
31735;DHT22;18313;48.518;9.124;2023-04-01T13:43:42;11.20;99.90
31735;DHT22;18313;48.518;9.124;2023-04-01T13:49:23;11.10;99.90
31735;DHT22;18313;48.518;9.124;2023-04-01T13:52:19;11.20;99.90
31735;DHT22;18313;48.518;9.124;2023-04-01T14:00:35;11.20;99.90
31735;DHT22;18313;48.518;9.124;2023-04-01T14:03:24;11.20;99.90
31735;DHT22;18313;48.518;9.124;2023-04-01T14:11:39;11.10;99.90
31735;DHT22;18313;48.518;9.124;2023-04-01T14:14:36;11.10;99.90
31735;DHT22;18313;48.518;9.124;2023-04-01T14:22:31;11.20;99.90
31735;DHT22;18313;48.518;9.124;2023-04-01T14:25:30;11.20;99.90
31735;DHT22;18313;48.518;9.124;2023-04-01T14:28:25;11.10;99.90
31735;DHT22;18313;48.518;9.124;2023-04-01T14:34:15;11.20;99.90
31735;DHT22;18313;48.518;9.124;2023-04-01T14:36:53;11.20;99.90
31735;DHT22;18313;48.518;9.124;2023-04-01T14:39:48;11.30;99.90
31735;DHT22;18313;48.518;9.124;2023-04-01T14:47:43;11.60;99.90
31735;DHT22;18313;48.518;9.124;2023-04-01T14:50:17;11.50;99.90
31735;DHT22;18313;48.518;9.124;2023-04-01T14:56:10;11.50;99.90
31735;DHT22;18313;48.518;9.124;2023-04-01T14:58:20;11.50;99.90
31735;DHT22;18313;48.518;9.124;2023-04-01T15:07:02;11.50;99.90
31735;DHT22;18313;48.518;9.124;2023-04-01T15:23:08;11.10;99.90
31735;DHT22;18313;48.518;9.124;2023-04-01T15:26:01;11.10;99.90
31735;DHT22;18313;48.518;9.124;2023-04-01T15:31:21;11.20;99.90
31735;DHT22;18313;48.518;9.124;2023-04-01T15:34:17;11.20;99.90
31735;DHT22;18313;48.518;9.124;2023-04-01T15:40:43;11.20;99.90
31735;DHT22;18313;48.518;9.124;2023-04-01T15:51:48;11.20;99.90
31735;DHT22;18313;48.518;9.124;2023-04-01T15:54:45;11.20;99.90
31735;DHT22;18313;48.518;9.124;2023-04-01T15:57:31;11.10;99.90
31735;DHT22;18313;48.518;9.124;2023-04-01T16:00:19;10.90;99.90
31735;DHT22;18313;48.518;9.124;2023-04-01T16:12:07;10.70;99.90
31735;DHT22;18313;48.518;9.124;2023-04-01T16:15:01;10.80;99.90
31735;DHT22;18313;48.518;9.124;2023-04-01T16:18:04;10.80;99.90
31735;DHT22;18313;48.518;9.124;2023-04-01T16:24:00;10.80;99.90
31735;DHT22;18313;48.518;9.124;2023-04-01T16:29:55;10.60;99.90
31735;DHT22;18313;48.518;9.124;2023-04-01T16:32:44;10.60;99.90
31735;DHT22;18313;48.518;9.124;2023-04-01T16:38:22;10.60;99.90
31735;DHT22;18313;48.518;9.124;2023-04-01T16:43:55;10.70;99.90
31735;DHT22;18313;48.518;9.124;2023-04-01T16:46:32;10.70;99.90
31735;DHT22;18313;48.518;9.124;2023-04-01T16:51:48;10.80;99.90
31735;DHT22;18313;48.518;9.124;2023-04-01T16:54:57;10.80;99.90
31735;DHT22;18313;48.518;9.124;2023-04-01T16:57:32;10.80;99.90
31735;DHT22;18313;48.518;9.124;2023-04-01T17:00:40;10.70;99.90
31735;DHT22;18313;48.518;9.124;2023-04-01T17:03:11;10.70;99.90
31735;DHT22;18313;48.518;9.124;2023-04-01T17:05:51;10.70;99.90
31735;DHT22;18313;48.518;9.124;2023-04-01T17:08:51;10.70;99.90
31735;DHT22;18313;48.518;9.124;2023-04-01T17:11:26;10.80;99.90
31735;DHT22;18313;48.518;9.124;2023-04-01T17:14:28;10.70;99.90
31735;DHT22;18313;48.518;9.124;2023-04-01T17:16:54;10.70;99.90
31735;DHT22;18313;48.518;9.124;2023-04-01T17:22:20;10.70;99.90
31735;DHT22;18313;48.518;9.124;2023-04-01T17:25:09;10.60;99.90
31735;DHT22;18313;48.518;9.124;2023-04-01T17:30:56;10.60;99.90
31735;DHT22;18313;48.518;9.124;2023-04-01T17:36:52;10.60;99.90
31735;DHT22;18313;48.518;9.124;2023-04-01T17:39:25;10.60;99.90
31735;DHT22;18313;48.518;9.124;2023-04-01T17:42:27;10.60;99.90
31735;DHT22;18313;48.518;9.124;2023-04-01T17:45:04;10.50;99.90
31735;DHT22;18313;48.518;9.124;2023-04-01T17:47:44;10.50;99.90
31735;DHT22;18313;48.518;9.124;2023-04-01T17:50:21;10.40;99.90
31735;DHT22;18313;48.518;9.124;2023-04-01T17:55:29;10.50;99.90
31735;DHT22;18313;48.518;9.124;2023-04-01T17:58:17;10.40;99.90
31735;DHT22;18313;48.518;9.124;2023-04-01T18:01:03;10.40;99.90
31735;DHT22;18313;48.518;9.124;2023-04-01T18:04:07;10.50;99.90
31735;DHT22;18313;48.518;9.124;2023-04-01T18:09:31;10.50;99.90
31735;DHT22;18313;48.518;9.124;2023-04-01T18:12:22;10.50;99.90
31735;DHT22;18313;48.518;9.124;2023-04-01T18:15:27;10.50;99.90
31735;DHT22;18313;48.518;9.124;2023-04-01T18:21:07;10.50;99.90
31735;DHT22;18313;48.518;9.124;2023-04-01T18:23:47;10.50;99.90
31735;DHT22;18313;48.518;9.124;2023-04-01T18:26:33;10.40;99.90
31735;DHT22;18313;48.518;9.124;2023-04-01T18:31:47;10.40;99.90
31735;DHT22;18313;48.518;9.124;2023-04-01T18:38:10;10.30;99.90
31735;DHT22;18313;48.518;9.124;2023-04-01T18:40:34;10.30;99.90
31735;DHT22;18313;48.518;9.124;2023-04-01T18:43:30;10.20;99.90
31735;DHT22;18313;48.518;9.124;2023-04-01T18:51:50;10.30;99.90
31735;DHT22;18313;48.518;9.124;2023-04-01T18:54:41;10.20;99.90
31735;DHT22;18313;48.518;9.124;2023-04-01T18:57:14;10.10;99.90
31735;DHT22;18313;48.518;9.124;2023-04-01T19:00:04;10.10;99.90
31735;DHT22;18313;48.518;9.124;2023-04-01T19:02:38;9.90;99.90
31735;DHT22;18313;48.518;9.124;2023-04-01T19:07:47;9.80;99.90
31735;DHT22;18313;48.518;9.124;2023-04-01T19:12:48;9.50;99.90
31735;DHT22;18313;48.518;9.124;2023-04-01T19:26:16;9.00;99.90
31735;DHT22;18313;48.518;9.124;2023-04-01T19:29:12;9.00;99.90
31735;DHT22;18313;48.518;9.124;2023-04-01T19:34:56;8.80;99.90
31735;DHT22;18313;48.518;9.124;2023-04-01T19:37:57;8.60;99.90
31735;DHT22;18313;48.518;9.124;2023-04-01T19:43:39;8.50;99.90
31735;DHT22;18313;48.518;9.124;2023-04-01T19:46:35;8.40;99.90
31735;DHT22;18313;48.518;9.124;2023-04-01T19:49:41;8.30;99.90
31735;DHT22;18313;48.518;9.124;2023-04-01T19:52:14;8.20;99.90
31735;DHT22;18313;48.518;9.124;2023-04-01T20:00:43;8.20;99.90
31735;DHT22;18313;48.518;9.124;2023-04-01T20:03:41;8.10;99.90
31735;DHT22;18313;48.518;9.124;2023-04-01T20:06:35;8.00;99.90
31735;DHT22;18313;48.518;9.124;2023-04-01T20:14:58;7.90;99.90
31735;DHT22;18313;48.518;9.124;2023-04-01T20:17:42;7.80;99.90
31735;DHT22;18313;48.518;9.124;2023-04-01T20:26:02;7.70;99.90
31735;DHT22;18313;48.518;9.124;2023-04-01T20:28:36;7.50;99.90
31735;DHT22;18313;48.518;9.124;2023-04-01T20:31:20;7.50;99.90
31735;DHT22;18313;48.518;9.124;2023-04-01T20:34:11;7.50;99.90
31735;DHT22;18313;48.518;9.124;2023-04-01T20:36:54;7.50;99.90
31735;DHT22;18313;48.518;9.124;2023-04-01T20:40:14;7.60;99.90
31735;DHT22;18313;48.518;9.124;2023-04-01T20:45:46;7.80;99.90
31735;DHT22;18313;48.518;9.124;2023-04-01T20:48:26;7.90;99.90
31735;DHT22;18313;48.518;9.124;2023-04-01T20:51:07;8.00;99.90
31735;DHT22;18313;48.518;9.124;2023-04-01T20:57:06;7.90;99.90
31735;DHT22;18313;48.518;9.124;2023-04-01T21:11:35;7.70;99.90
31735;DHT22;18313;48.518;9.124;2023-04-01T21:16:49;7.80;99.90
31735;DHT22;18313;48.518;9.124;2023-04-01T21:27:47;8.00;99.90
31735;DHT22;18313;48.518;9.124;2023-04-01T21:39:15;8.00;99.90
31735;DHT22;18313;48.518;9.124;2023-04-01T21:44:40;8.00;99.90
31735;DHT22;18313;48.518;9.124;2023-04-01T21:56:25;7.90;99.90
31735;DHT22;18313;48.518;9.124;2023-04-01T22:01:59;7.90;99.90
31735;DHT22;18313;48.518;9.124;2023-04-01T22:04:41;7.90;99.90
31735;DHT22;18313;48.518;9.124;2023-04-01T22:07:29;8.00;99.90
31735;DHT22;18313;48.518;9.124;2023-04-01T22:13:13;8.00;99.90
31735;DHT22;18313;48.518;9.124;2023-04-01T22:15:59;8.10;99.90
31735;DHT22;18313;48.518;9.124;2023-04-01T22:18:32;8.00;99.90
31735;DHT22;18313;48.518;9.124;2023-04-01T22:23:42;8.00;99.90
31735;DHT22;18313;48.518;9.124;2023-04-01T22:26:14;8.10;99.90
31735;DHT22;18313;48.518;9.124;2023-04-01T22:28:57;8.10;99.90
31735;DHT22;18313;48.518;9.124;2023-04-01T22:39:58;8.00;99.90
31735;DHT22;18313;48.518;9.124;2023-04-01T22:42:47;7.90;99.90
31735;DHT22;18313;48.518;9.124;2023-04-01T22:54:03;7.80;99.90
31735;DHT22;18313;48.518;9.124;2023-04-01T22:56:34;7.70;99.90
31735;DHT22;18313;48.518;9.124;2023-04-01T22:59:19;7.70;99.90
31735;DHT22;18313;48.518;9.124;2023-04-01T23:01:59;7.70;99.90
31735;DHT22;18313;48.518;9.124;2023-04-01T23:04:38;7.70;99.90
31735;DHT22;18313;48.518;9.124;2023-04-01T23:07:34;7.70;99.90
31735;DHT22;18313;48.518;9.124;2023-04-01T23:10:06;7.60;99.90
31735;DHT22;18313;48.518;9.124;2023-04-01T23:12:40;7.60;99.90
31735;DHT22;18313;48.518;9.124;2023-04-01T23:15:14;7.50;99.90
31735;DHT22;18313;48.518;9.124;2023-04-01T23:17:44;7.60;99.90
31735;DHT22;18313;48.518;9.124;2023-04-01T23:20:29;7.60;99.90
31735;DHT22;18313;48.518;9.124;2023-04-01T23:23:35;7.40;99.90
31735;DHT22;18313;48.518;9.124;2023-04-01T23:26:25;7.40;99.90
31735;DHT22;18313;48.518;9.124;2023-04-01T23:28:57;7.50;99.90
31735;DHT22;18313;48.518;9.124;2023-04-01T23:31:43;7.40;99.90
31735;DHT22;18313;48.518;9.124;2023-04-01T23:36:46;7.40;99.90
31735;DHT22;18313;48.518;9.124;2023-04-01T23:39:26;7.40;99.90
31735;DHT22;18313;48.518;9.124;2023-04-01T23:41:59;7.40;99.90
31735;DHT22;18313;48.518;9.124;2023-04-01T23:44:28;7.30;99.90
31735;DHT22;18313;48.518;9.124;2023-04-01T23:46:57;7.30;99.90
31735;DHT22;18313;48.518;9.124;2023-04-01T23:49:34;7.30;99.90
31735;DHT22;18313;48.518;9.124;2023-04-01T23:52:14;7.30;99.90
31735;DHT22;18313;48.518;9.124;2023-04-01T23:54:59;7.20;99.90
31735;DHT22;18313;48.518;9.124;2023-04-01T23:57:33;7.20;99.90
